sensor_id;sensor_type;location;lat;lon;timestamp;P1;durP1;ratioP1;P2;durP2;ratioP2
69057;SDS011;56128;37.534;-122.308;2023-02-11T00:01:41;3.88;;;0.65;;
69057;SDS011;56128;37.534;-122.308;2023-02-11T00:04:07;1.60;;;1.05;;
69057;SDS011;56128;37.534;-122.308;2023-02-11T00:06:34;2.17;;;0.55;;
69057;SDS011;56128;37.534;-122.308;2023-02-11T00:09:00;3.13;;;0.88;;
69057;SDS011;56128;37.534;-122.308;2023-02-11T00:11:27;2.33;;;1.08;;
69057;SDS011;56128;37.534;-122.308;2023-02-11T00:13:57;1.35;;;0.68;;
69057;SDS011;56128;37.534;-122.308;2023-02-11T00:16:26;5.93;;;1.00;;
69057;SDS011;56128;37.534;-122.308;2023-02-11T00:18:53;3.65;;;0.88;;
69057;SDS011;56128;37.534;-122.308;2023-02-11T00:21:22;5.63;;;1.02;;
69057;SDS011;56128;37.534;-122.308;2023-02-11T00:23:50;1.83;;;0.80;;
69057;SDS011;56128;37.534;-122.308;2023-02-11T00:26:18;3.20;;;0.80;;
69057;SDS011;56128;37.534;-122.308;2023-02-11T00:28:46;4.53;;;0.80;;
69057;SDS011;56128;37.534;-122.308;2023-02-11T00:31:14;2.30;;;0.90;;
69057;SDS011;56128;37.534;-122.308;2023-02-11T00:33:42;2.97;;;0.90;;
69057;SDS011;56128;37.534;-122.308;2023-02-11T00:36:10;2.80;;;0.80;;
69057;SDS011;56128;37.534;-122.308;2023-02-11T00:38:41;3.90;;;1.08;;
69057;SDS011;56128;37.534;-122.308;2023-02-11T00:41:11;2.58;;;0.90;;
69057;SDS011;56128;37.534;-122.308;2023-02-11T00:43:39;6.95;;;1.17;;
69057;SDS011;56128;37.534;-122.308;2023-02-11T00:46:06;4.88;;;1.33;;
69057;SDS011;56128;37.534;-122.308;2023-02-11T00:48:33;4.82;;;1.27;;
69057;SDS011;56128;37.534;-122.308;2023-02-11T00:51:00;3.00;;;1.08;;
69057;SDS011;56128;37.534;-122.308;2023-02-11T00:53:26;3.22;;;0.90;;
69057;SDS011;56128;37.534;-122.308;2023-02-11T00:55:52;4.53;;;0.90;;
69057;SDS011;56128;37.534;-122.308;2023-02-11T00:58:19;2.30;;;1.00;;
69057;SDS011;56128;37.534;-122.308;2023-02-11T01:00:46;5.47;;;1.13;;
69057;SDS011;56128;37.534;-122.308;2023-02-11T01:03:13;6.10;;;1.30;;
69057;SDS011;56128;37.534;-122.308;2023-02-11T01:05:39;5.68;;;1.10;;
69057;SDS011;56128;37.534;-122.308;2023-02-11T01:08:05;5.93;;;0.93;;
69057;SDS011;56128;37.534;-122.308;2023-02-11T01:10:32;4.35;;;1.35;;
69057;SDS011;56128;37.534;-122.308;2023-02-11T01:12:58;5.20;;;1.00;;
69057;SDS011;56128;37.534;-122.308;2023-02-11T01:15:25;2.38;;;1.02;;
69057;SDS011;56128;37.534;-122.308;2023-02-11T01:17:52;6.07;;;1.67;;
69057;SDS011;56128;37.534;-122.308;2023-02-11T01:20:20;3.22;;;1.10;;
69057;SDS011;56128;37.534;-122.308;2023-02-11T01:22:49;9.38;;;1.80;;
69057;SDS011;56128;37.534;-122.308;2023-02-11T01:25:15;10.38;;;1.92;;
69057;SDS011;56128;37.534;-122.308;2023-02-11T01:27:42;7.43;;;1.40;;
69057;SDS011;56128;37.534;-122.308;2023-02-11T01:30:09;5.38;;;1.60;;
69057;SDS011;56128;37.534;-122.308;2023-02-11T01:32:38;4.07;;;1.42;;
69057;SDS011;56128;37.534;-122.308;2023-02-11T01:35:04;10.35;;;1.80;;
69057;SDS011;56128;37.534;-122.308;2023-02-11T01:37:32;9.77;;;1.85;;
69057;SDS011;56128;37.534;-122.308;2023-02-11T01:40:00;5.47;;;1.55;;
69057;SDS011;56128;37.534;-122.308;2023-02-11T01:42:27;7.28;;;1.15;;
69057;SDS011;56128;37.534;-122.308;2023-02-11T01:44:54;7.72;;;1.40;;
69057;SDS011;56128;37.534;-122.308;2023-02-11T01:47:22;6.68;;;1.38;;
69057;SDS011;56128;37.534;-122.308;2023-02-11T01:49:49;4.50;;;1.30;;
69057;SDS011;56128;37.534;-122.308;2023-02-11T01:52:31;6.03;;;1.42;;
69057;SDS011;56128;37.534;-122.308;2023-02-11T01:55:02;6.50;;;1.38;;
69057;SDS011;56128;37.534;-122.308;2023-02-11T01:57:53;13.13;;;2.60;;
69057;SDS011;56128;37.534;-122.308;2023-02-11T02:03:01;5.93;;;1.42;;
69057;SDS011;56128;37.534;-122.308;2023-02-11T02:11:03;5.88;;;1.30;;
69057;SDS011;56128;37.534;-122.308;2023-02-11T02:13:30;6.55;;;1.10;;
69057;SDS011;56128;37.534;-122.308;2023-02-11T02:16:02;11.02;;;1.40;;
69057;SDS011;56128;37.534;-122.308;2023-02-11T02:18:45;5.70;;;1.40;;
69057;SDS011;56128;37.534;-122.308;2023-02-11T02:26:45;6.05;;;1.35;;
69057;SDS011;56128;37.534;-122.308;2023-02-11T02:38:37;5.93;;;1.35;;
69057;SDS011;56128;37.534;-122.308;2023-02-11T02:41:08;5.60;;;1.40;;
69057;SDS011;56128;37.534;-122.308;2023-02-11T02:43:39;3.15;;;1.35;;
69057;SDS011;56128;37.534;-122.308;2023-02-11T02:46:16;6.00;;;1.50;;
69057;SDS011;56128;37.534;-122.308;2023-02-11T02:48:50;6.55;;;1.58;;
69057;SDS011;56128;37.534;-122.308;2023-02-11T03:05:11;7.82;;;1.45;;
69057;SDS011;56128;37.534;-122.308;2023-02-11T03:07:44;5.30;;;1.98;;
69057;SDS011;56128;37.534;-122.308;2023-02-11T03:10:30;6.07;;;1.42;;
69057;SDS011;56128;37.534;-122.308;2023-02-11T03:13:01;4.93;;;1.52;;
69057;SDS011;56128;37.534;-122.308;2023-02-11T03:15:30;6.78;;;1.80;;
69057;SDS011;56128;37.534;-122.308;2023-02-11T03:18:02;4.75;;;1.33;;
69057;SDS011;56128;37.534;-122.308;2023-02-11T03:20:32;8.15;;;1.70;;
69057;SDS011;56128;37.534;-122.308;2023-02-11T03:23:10;7.82;;;1.65;;
69057;SDS011;56128;37.534;-122.308;2023-02-11T03:25:43;6.32;;;1.73;;
69057;SDS011;56128;37.534;-122.308;2023-02-11T03:28:17;14.90;;;2.15;;
69057;SDS011;56128;37.534;-122.308;2023-02-11T03:31:17;7.05;;;1.30;;
69057;SDS011;56128;37.534;-122.308;2023-02-11T03:33:58;7.28;;;1.58;;
69057;SDS011;56128;37.534;-122.308;2023-02-11T03:36:34;5.68;;;1.38;;
69057;SDS011;56128;37.534;-122.308;2023-02-11T03:39:11;4.07;;;1.08;;
69057;SDS011;56128;37.534;-122.308;2023-02-11T03:41:43;3.97;;;1.23;;
69057;SDS011;56128;37.534;-122.308;2023-02-11T03:44:13;5.78;;;1.63;;
69057;SDS011;56128;37.534;-122.308;2023-02-11T03:46:42;7.65;;;1.60;;
69057;SDS011;56128;37.534;-122.308;2023-02-11T03:49:13;6.88;;;1.50;;
69057;SDS011;56128;37.534;-122.308;2023-02-11T03:51:44;3.70;;;1.23;;
69057;SDS011;56128;37.534;-122.308;2023-02-11T03:54:14;4.45;;;1.48;;
69057;SDS011;56128;37.534;-122.308;2023-02-11T03:56:51;8.95;;;1.50;;
69057;SDS011;56128;37.534;-122.308;2023-02-11T03:59:20;8.25;;;1.85;;
69057;SDS011;56128;37.534;-122.308;2023-02-11T04:01:46;8.32;;;1.50;;
69057;SDS011;56128;37.534;-122.308;2023-02-11T04:04:12;11.27;;;1.63;;
69057;SDS011;56128;37.534;-122.308;2023-02-11T04:06:39;6.07;;;1.42;;
69057;SDS011;56128;37.534;-122.308;2023-02-11T04:09:05;9.95;;;1.63;;
69057;SDS011;56128;37.534;-122.308;2023-02-11T04:11:32;8.63;;;1.50;;
69057;SDS011;56128;37.534;-122.308;2023-02-11T04:13:58;5.03;;;1.23;;
69057;SDS011;56128;37.534;-122.308;2023-02-11T04:16:24;13.40;;;2.00;;
69057;SDS011;56128;37.534;-122.308;2023-02-11T04:18:50;8.43;;;1.52;;
69057;SDS011;56128;37.534;-122.308;2023-02-11T04:21:16;6.95;;;1.45;;
69057;SDS011;56128;37.534;-122.308;2023-02-11T04:23:43;6.35;;;1.55;;
69057;SDS011;56128;37.534;-122.308;2023-02-11T04:26:09;6.80;;;1.70;;
69057;SDS011;56128;37.534;-122.308;2023-02-11T04:28:35;7.53;;;1.20;;
69057;SDS011;56128;37.534;-122.308;2023-02-11T04:31:04;4.50;;;1.38;;
69057;SDS011;56128;37.534;-122.308;2023-02-11T04:33:31;5.82;;;1.50;;
69057;SDS011;56128;37.534;-122.308;2023-02-11T04:35:59;9.30;;;1.85;;
69057;SDS011;56128;37.534;-122.308;2023-02-11T04:38:25;5.57;;;1.40;;
69057;SDS011;56128;37.534;-122.308;2023-02-11T04:40:52;5.45;;;1.55;;
69057;SDS011;56128;37.534;-122.308;2023-02-11T04:43:18;7.47;;;1.83;;
69057;SDS011;56128;37.534;-122.308;2023-02-11T04:46:04;9.13;;;1.85;;
69057;SDS011;56128;37.534;-122.308;2023-02-11T04:48:31;8.15;;;1.65;;
69057;SDS011;56128;37.534;-122.308;2023-02-11T04:50:59;4.78;;;1.33;;
69057;SDS011;56128;37.534;-122.308;2023-02-11T04:53:25;4.95;;;1.38;;
69057;SDS011;56128;37.534;-122.308;2023-02-11T04:55:51;5.25;;;1.42;;
69057;SDS011;56128;37.534;-122.308;2023-02-11T04:58:18;4.03;;;1.27;;
69057;SDS011;56128;37.534;-122.308;2023-02-11T05:00:45;5.70;;;1.50;;
69057;SDS011;56128;37.534;-122.308;2023-02-11T05:03:12;6.22;;;1.30;;
69057;SDS011;56128;37.534;-122.308;2023-02-11T05:05:39;6.18;;;1.40;;
69057;SDS011;56128;37.534;-122.308;2023-02-11T05:08:06;4.72;;;1.55;;
69057;SDS011;56128;37.534;-122.308;2023-02-11T05:10:34;5.13;;;1.50;;
69057;SDS011;56128;37.534;-122.308;2023-02-11T05:13:03;5.97;;;1.65;;
69057;SDS011;56128;37.534;-122.308;2023-02-11T05:15:30;5.60;;;1.25;;
69057;SDS011;56128;37.534;-122.308;2023-02-11T05:17:56;8.27;;;1.45;;
69057;SDS011;56128;37.534;-122.308;2023-02-11T05:20:22;7.53;;;1.65;;
69057;SDS011;56128;37.534;-122.308;2023-02-11T05:22:49;8.48;;;1.77;;
69057;SDS011;56128;37.534;-122.308;2023-02-11T05:25:15;5.82;;;1.65;;
69057;SDS011;56128;37.534;-122.308;2023-02-11T05:27:41;7.53;;;1.88;;
69057;SDS011;56128;37.534;-122.308;2023-02-11T05:30:07;5.80;;;1.83;;
69057;SDS011;56128;37.534;-122.308;2023-02-11T05:32:35;7.43;;;1.80;;
69057;SDS011;56128;37.534;-122.308;2023-02-11T05:35:01;5.35;;;1.95;;
69057;SDS011;56128;37.534;-122.308;2023-02-11T05:37:27;7.40;;;2.35;;
69057;SDS011;56128;37.534;-122.308;2023-02-11T05:39:54;7.78;;;2.33;;
69057;SDS011;56128;37.534;-122.308;2023-02-11T05:42:20;8.80;;;2.05;;
69057;SDS011;56128;37.534;-122.308;2023-02-11T05:44:46;9.43;;;2.10;;
69057;SDS011;56128;37.534;-122.308;2023-02-11T05:47:12;4.75;;;2.05;;
69057;SDS011;56128;37.534;-122.308;2023-02-11T05:49:38;9.43;;;1.70;;
69057;SDS011;56128;37.534;-122.308;2023-02-11T05:52:05;7.13;;;1.50;;
69057;SDS011;56128;37.534;-122.308;2023-02-11T05:54:31;4.70;;;1.83;;
69057;SDS011;56128;37.534;-122.308;2023-02-11T05:56:57;4.28;;;1.42;;
69057;SDS011;56128;37.534;-122.308;2023-02-11T05:59:23;5.70;;;1.45;;
69057;SDS011;56128;37.534;-122.308;2023-02-11T06:01:50;4.28;;;1.70;;
69057;SDS011;56128;37.534;-122.308;2023-02-11T06:04:19;6.28;;;1.77;;
69057;SDS011;56128;37.534;-122.308;2023-02-11T06:06:46;6.80;;;1.75;;
69057;SDS011;56128;37.534;-122.308;2023-02-11T06:09:12;4.60;;;1.20;;
69057;SDS011;56128;37.534;-122.308;2023-02-11T06:11:38;4.40;;;1.23;;
69057;SDS011;56128;37.534;-122.308;2023-02-11T06:14:04;7.80;;;1.98;;
69057;SDS011;56128;37.534;-122.308;2023-02-11T06:16:31;6.15;;;1.52;;
69057;SDS011;56128;37.534;-122.308;2023-02-11T06:18:57;5.13;;;1.25;;
69057;SDS011;56128;37.534;-122.308;2023-02-11T06:21:23;4.75;;;1.80;;
69057;SDS011;56128;37.534;-122.308;2023-02-11T06:23:49;8.05;;;1.10;;
69057;SDS011;56128;37.534;-122.308;2023-02-11T06:26:17;6.60;;;1.52;;
69057;SDS011;56128;37.534;-122.308;2023-02-11T06:28:47;3.58;;;1.33;;
69057;SDS011;56128;37.534;-122.308;2023-02-11T06:31:14;5.35;;;1.50;;
69057;SDS011;56128;37.534;-122.308;2023-02-11T06:33:41;3.40;;;1.17;;
69057;SDS011;56128;37.534;-122.308;2023-02-11T06:36:13;5.70;;;1.20;;
69057;SDS011;56128;37.534;-122.308;2023-02-11T06:38:42;5.75;;;1.10;;
69057;SDS011;56128;37.534;-122.308;2023-02-11T06:41:12;8.43;;;1.27;;
69057;SDS011;56128;37.534;-122.308;2023-02-11T06:43:40;6.80;;;1.40;;
69057;SDS011;56128;37.534;-122.308;2023-02-11T06:46:06;3.38;;;1.33;;
69057;SDS011;56128;37.534;-122.308;2023-02-11T06:48:33;2.58;;;0.88;;
69057;SDS011;56128;37.534;-122.308;2023-02-11T06:51:07;7.05;;;1.42;;
69057;SDS011;56128;37.534;-122.308;2023-02-11T06:53:44;4.97;;;1.17;;
69057;SDS011;56128;37.534;-122.308;2023-02-11T06:56:13;6.07;;;1.17;;
69057;SDS011;56128;37.534;-122.308;2023-02-11T06:58:40;5.20;;;1.10;;
69057;SDS011;56128;37.534;-122.308;2023-02-11T07:01:08;3.97;;;0.98;;
69057;SDS011;56128;37.534;-122.308;2023-02-11T07:03:36;3.83;;;0.95;;
69057;SDS011;56128;37.534;-122.308;2023-02-11T07:06:05;4.70;;;1.20;;
69057;SDS011;56128;37.534;-122.308;2023-02-11T07:08:35;7.35;;;1.20;;
69057;SDS011;56128;37.534;-122.308;2023-02-11T07:14:06;4.82;;;0.95;;
69057;SDS011;56128;37.534;-122.308;2023-02-11T07:16:33;5.47;;;0.93;;
69057;SDS011;56128;37.534;-122.308;2023-02-11T07:18:59;6.93;;;1.05;;
69057;SDS011;56128;37.534;-122.308;2023-02-11T07:21:26;6.20;;;1.73;;
69057;SDS011;56128;37.534;-122.308;2023-02-11T07:23:52;5.47;;;0.90;;
69057;SDS011;56128;37.534;-122.308;2023-02-11T07:26:20;2.45;;;0.90;;
69057;SDS011;56128;37.534;-122.308;2023-02-11T07:28:48;2.30;;;1.25;;
69057;SDS011;56128;37.534;-122.308;2023-02-11T07:31:19;8.90;;;1.27;;
69057;SDS011;56128;37.534;-122.308;2023-02-11T07:33:47;3.67;;;1.10;;
69057;SDS011;56128;37.534;-122.308;2023-02-11T07:36:14;5.70;;;1.00;;
69057;SDS011;56128;37.534;-122.308;2023-02-11T07:38:41;3.20;;;0.90;;
69057;SDS011;56128;37.534;-122.308;2023-02-11T07:41:12;6.30;;;1.00;;
69057;SDS011;56128;37.534;-122.308;2023-02-11T07:43:41;4.63;;;1.42;;
69057;SDS011;56128;37.534;-122.308;2023-02-11T07:46:17;5.63;;;1.20;;
69057;SDS011;56128;37.534;-122.308;2023-02-11T07:48:48;5.78;;;1.10;;
69057;SDS011;56128;37.534;-122.308;2023-02-11T07:51:20;6.85;;;1.35;;
69057;SDS011;56128;37.534;-122.308;2023-02-11T07:53:49;11.77;;;1.23;;
69057;SDS011;56128;37.534;-122.308;2023-02-11T07:56:17;4.75;;;1.20;;
69057;SDS011;56128;37.534;-122.308;2023-02-11T07:58:44;4.95;;;0.93;;
69057;SDS011;56128;37.534;-122.308;2023-02-11T08:01:12;4.10;;;0.95;;
69057;SDS011;56128;37.534;-122.308;2023-02-11T08:03:41;5.50;;;0.93;;
69057;SDS011;56128;37.534;-122.308;2023-02-11T08:06:11;5.63;;;0.90;;
69057;SDS011;56128;37.534;-122.308;2023-02-11T08:08:39;4.40;;;1.30;;
69057;SDS011;56128;37.534;-122.308;2023-02-11T08:11:06;5.15;;;1.23;;
69057;SDS011;56128;37.534;-122.308;2023-02-11T08:13:34;2.67;;;0.73;;
69057;SDS011;56128;37.534;-122.308;2023-02-11T08:16:01;3.00;;;1.40;;
69057;SDS011;56128;37.534;-122.308;2023-02-11T08:18:29;6.75;;;1.02;;
69057;SDS011;56128;37.534;-122.308;2023-02-11T08:20:55;4.05;;;1.25;;
69057;SDS011;56128;37.534;-122.308;2023-02-11T08:23:22;6.45;;;1.40;;
69057;SDS011;56128;37.534;-122.308;2023-02-11T08:25:48;6.97;;;1.30;;
69057;SDS011;56128;37.534;-122.308;2023-02-11T08:28:14;6.68;;;1.50;;
69057;SDS011;56128;37.534;-122.308;2023-02-11T08:30:41;12.65;;;1.23;;
69057;SDS011;56128;37.534;-122.308;2023-02-11T08:33:07;4.45;;;1.10;;
69057;SDS011;56128;37.534;-122.308;2023-02-11T08:35:34;3.45;;;1.10;;
69057;SDS011;56128;37.534;-122.308;2023-02-11T08:38:01;8.63;;;1.50;;
69057;SDS011;56128;37.534;-122.308;2023-02-11T08:40:27;4.65;;;1.13;;
69057;SDS011;56128;37.534;-122.308;2023-02-11T08:42:53;4.47;;;0.95;;
69057;SDS011;56128;37.534;-122.308;2023-02-11T08:45:19;3.85;;;1.30;;
69057;SDS011;56128;37.534;-122.308;2023-02-11T08:47:46;5.90;;;1.10;;
69057;SDS011;56128;37.534;-122.308;2023-02-11T08:50:12;5.93;;;1.30;;
69057;SDS011;56128;37.534;-122.308;2023-02-11T08:52:38;3.95;;;1.15;;
69057;SDS011;56128;37.534;-122.308;2023-02-11T08:55:04;7.15;;;1.20;;
69057;SDS011;56128;37.534;-122.308;2023-02-11T08:57:31;6.82;;;1.48;;
69057;SDS011;56128;37.534;-122.308;2023-02-11T08:59:57;5.50;;;1.25;;
69057;SDS011;56128;37.534;-122.308;2023-02-11T09:02:23;7.97;;;2.13;;
69057;SDS011;56128;37.534;-122.308;2023-02-11T09:04:49;7.07;;;1.00;;
69057;SDS011;56128;37.534;-122.308;2023-02-11T09:07:16;5.72;;;1.15;;
69057;SDS011;56128;37.534;-122.308;2023-02-11T09:09:42;6.25;;;1.13;;
69057;SDS011;56128;37.534;-122.308;2023-02-11T09:12:08;5.28;;;1.38;;
69057;SDS011;56128;37.534;-122.308;2023-02-11T09:14:34;5.07;;;0.88;;
69057;SDS011;56128;37.534;-122.308;2023-02-11T09:17:01;2.67;;;0.88;;
69057;SDS011;56128;37.534;-122.308;2023-02-11T09:19:27;4.15;;;0.90;;
69057;SDS011;56128;37.534;-122.308;2023-02-11T09:21:53;5.28;;;0.90;;
69057;SDS011;56128;37.534;-122.308;2023-02-11T09:24:20;4.28;;;1.10;;
69057;SDS011;56128;37.534;-122.308;2023-02-11T09:26:46;3.42;;;1.10;;
69057;SDS011;56128;37.534;-122.308;2023-02-11T09:29:13;5.00;;;0.98;;
69057;SDS011;56128;37.534;-122.308;2023-02-11T09:32:00;4.20;;;1.10;;
69057;SDS011;56128;37.534;-122.308;2023-02-11T09:34:26;6.25;;;1.08;;
69057;SDS011;56128;37.534;-122.308;2023-02-11T09:36:52;7.22;;;1.45;;
69057;SDS011;56128;37.534;-122.308;2023-02-11T09:39:18;5.40;;;1.35;;
69057;SDS011;56128;37.534;-122.308;2023-02-11T09:44:30;7.32;;;1.17;;
69057;SDS011;56128;37.534;-122.308;2023-02-11T09:47:00;5.10;;;1.20;;
69057;SDS011;56128;37.534;-122.308;2023-02-11T09:54:58;8.95;;;1.35;;
69057;SDS011;56128;37.534;-122.308;2023-02-11T09:57:33;7.38;;;1.17;;
69057;SDS011;56128;37.534;-122.308;2023-02-11T10:00:01;10.10;;;1.35;;
69057;SDS011;56128;37.534;-122.308;2023-02-11T10:11:29;10.80;;;1.17;;
69057;SDS011;56128;37.534;-122.308;2023-02-11T10:19:59;5.43;;;1.20;;
69057;SDS011;56128;37.534;-122.308;2023-02-11T10:22:49;2.50;;;0.63;;
69057;SDS011;56128;37.534;-122.308;2023-02-11T10:25:38;3.50;;;0.77;;
69057;SDS011;56128;37.534;-122.308;2023-02-11T10:28:14;7.13;;;0.90;;
69057;SDS011;56128;37.534;-122.308;2023-02-11T10:31:05;6.10;;;1.00;;
69057;SDS011;56128;37.534;-122.308;2023-02-11T10:36:04;3.55;;;0.90;;
69057;SDS011;56128;37.534;-122.308;2023-02-11T10:38:31;6.28;;;1.10;;
69057;SDS011;56128;37.534;-122.308;2023-02-11T10:40:58;5.43;;;1.65;;
69057;SDS011;56128;37.534;-122.308;2023-02-11T10:43:25;4.15;;;0.68;;
69057;SDS011;56128;37.534;-122.308;2023-02-11T10:45:55;3.88;;;0.65;;
69057;SDS011;56128;37.534;-122.308;2023-02-11T10:53:37;1.40;;;0.55;;
69057;SDS011;56128;37.534;-122.308;2023-02-11T10:56:05;4.13;;;0.68;;
69057;SDS011;56128;37.534;-122.308;2023-02-11T11:01:22;6.50;;;1.10;;
69057;SDS011;56128;37.534;-122.308;2023-02-11T11:04:01;5.25;;;1.08;;
69057;SDS011;56128;37.534;-122.308;2023-02-11T11:06:29;3.38;;;1.00;;
69057;SDS011;56128;37.534;-122.308;2023-02-11T11:08:57;2.45;;;0.80;;
69057;SDS011;56128;37.534;-122.308;2023-02-11T11:11:24;8.18;;;0.80;;
69057;SDS011;56128;37.534;-122.308;2023-02-11T11:16:21;4.55;;;1.02;;
69057;SDS011;56128;37.534;-122.308;2023-02-11T11:19:11;3.45;;;1.08;;
69057;SDS011;56128;37.534;-122.308;2023-02-11T11:21:43;2.25;;;0.93;;
69057;SDS011;56128;37.534;-122.308;2023-02-11T11:24:28;6.95;;;1.08;;
69057;SDS011;56128;37.534;-122.308;2023-02-11T11:27:14;6.75;;;1.00;;
69057;SDS011;56128;37.534;-122.308;2023-02-11T11:29:47;4.65;;;0.98;;
69057;SDS011;56128;37.534;-122.308;2023-02-11T11:32:31;4.35;;;1.05;;
69057;SDS011;56128;37.534;-122.308;2023-02-11T11:35:03;4.43;;;1.50;;
69057;SDS011;56128;37.534;-122.308;2023-02-11T11:37:45;6.30;;;1.35;;
69057;SDS011;56128;37.534;-122.308;2023-02-11T11:45:38;4.30;;;0.90;;
69057;SDS011;56128;37.534;-122.308;2023-02-11T11:48:20;3.20;;;0.60;;
69057;SDS011;56128;37.534;-122.308;2023-02-11T11:50:52;2.65;;;0.70;;
69057;SDS011;56128;37.534;-122.308;2023-02-11T11:56:04;2.60;;;0.90;;
69057;SDS011;56128;37.534;-122.308;2023-02-11T11:58:33;5.50;;;0.98;;
69057;SDS011;56128;37.534;-122.308;2023-02-11T12:04:09;9.77;;;1.10;;
69057;SDS011;56128;37.534;-122.308;2023-02-11T12:09:23;4.82;;;1.02;;
69057;SDS011;56128;37.534;-122.308;2023-02-11T12:11:55;3.00;;;0.80;;
69057;SDS011;56128;37.534;-122.308;2023-02-11T12:14:31;2.47;;;0.83;;
69057;SDS011;56128;37.534;-122.308;2023-02-11T12:21:22;2.85;;;0.80;;
69057;SDS011;56128;37.534;-122.308;2023-02-11T12:23:31;3.85;;;0.80;;
69057;SDS011;56128;37.534;-122.308;2023-02-11T12:26:19;4.80;;;1.00;;
69057;SDS011;56128;37.534;-122.308;2023-02-11T12:34:57;1.13;;;0.45;;
69057;SDS011;56128;37.534;-122.308;2023-02-11T12:40:38;2.45;;;0.70;;
69057;SDS011;56128;37.534;-122.308;2023-02-11T12:43:20;3.28;;;0.80;;
69057;SDS011;56128;37.534;-122.308;2023-02-11T12:45:55;2.03;;;0.70;;
69057;SDS011;56128;37.534;-122.308;2023-02-11T12:49:10;2.00;;;0.63;;
69057;SDS011;56128;37.534;-122.308;2023-02-11T12:57:02;5.63;;;0.73;;
69057;SDS011;56128;37.534;-122.308;2023-02-11T12:59:46;2.17;;;0.70;;
69057;SDS011;56128;37.534;-122.308;2023-02-11T13:02:23;7.38;;;0.90;;
69057;SDS011;56128;37.534;-122.308;2023-02-11T13:05:21;3.35;;;0.90;;
69057;SDS011;56128;37.534;-122.308;2023-02-11T13:08:10;4.75;;;0.82;;
69057;SDS011;56128;37.534;-122.308;2023-02-11T13:10:40;6.30;;;0.90;;
69057;SDS011;56128;37.534;-122.308;2023-02-11T13:13:13;4.57;;;0.82;;
69057;SDS011;56128;37.534;-122.308;2023-02-11T13:15:52;1.85;;;0.63;;
69057;SDS011;56128;37.534;-122.308;2023-02-11T13:18:31;3.10;;;0.77;;
69057;SDS011;56128;37.534;-122.308;2023-02-11T13:26:29;2.67;;;0.82;;
69057;SDS011;56128;37.534;-122.308;2023-02-11T13:31:52;4.05;;;0.90;;
69057;SDS011;56128;37.534;-122.308;2023-02-11T13:37:30;6.85;;;0.85;;
69057;SDS011;56128;37.534;-122.308;2023-02-11T13:42:55;1.02;;;0.60;;
69057;SDS011;56128;37.534;-122.308;2023-02-11T13:45:27;3.08;;;0.60;;
69057;SDS011;56128;37.534;-122.308;2023-02-11T13:47:55;5.45;;;1.42;;
69057;SDS011;56128;37.534;-122.308;2023-02-11T13:50:24;3.20;;;0.80;;
69057;SDS011;56128;37.534;-122.308;2023-02-11T13:52:57;2.95;;;0.82;;
69057;SDS011;56128;37.534;-122.308;2023-02-11T13:55:25;4.22;;;0.90;;
69057;SDS011;56128;37.534;-122.308;2023-02-11T14:06:10;2.88;;;0.70;;
69057;SDS011;56128;37.534;-122.308;2023-02-11T14:19:58;2.28;;;0.60;;
69057;SDS011;56128;37.534;-122.308;2023-02-11T14:22:25;4.82;;;0.70;;
69057;SDS011;56128;37.534;-122.308;2023-02-11T14:24:55;2.25;;;0.80;;
69057;SDS011;56128;37.534;-122.308;2023-02-11T14:27:30;4.15;;;0.90;;
69057;SDS011;56128;37.534;-122.308;2023-02-11T14:30:06;1.13;;;0.55;;
69057;SDS011;56128;37.534;-122.308;2023-02-11T14:41:05;5.63;;;0.70;;
69057;SDS011;56128;37.534;-122.308;2023-02-11T14:43:45;1.80;;;0.63;;
69057;SDS011;56128;37.534;-122.308;2023-02-11T14:46:17;1.42;;;0.70;;
69057;SDS011;56128;37.534;-122.308;2023-02-11T14:48:46;4.05;;;0.80;;
69057;SDS011;56128;37.534;-122.308;2023-02-11T14:51:17;3.45;;;1.15;;
69057;SDS011;56128;37.534;-122.308;2023-02-11T14:53:48;2.40;;;0.52;;
69057;SDS011;56128;37.534;-122.308;2023-02-11T14:56:27;2.22;;;0.60;;
69057;SDS011;56128;37.534;-122.308;2023-02-11T14:58:59;2.08;;;0.68;;
69057;SDS011;56128;37.534;-122.308;2023-02-11T15:04:02;3.20;;;0.82;;
69057;SDS011;56128;37.534;-122.308;2023-02-11T15:06:35;2.17;;;0.80;;
69057;SDS011;56128;37.534;-122.308;2023-02-11T15:09:20;1.45;;;0.43;;
69057;SDS011;56128;37.534;-122.308;2023-02-11T15:11:57;1.50;;;0.50;;
69057;SDS011;56128;37.534;-122.308;2023-02-11T15:16:57;0.73;;;0.40;;
69057;SDS011;56128;37.534;-122.308;2023-02-11T15:19:34;3.35;;;0.70;;
69057;SDS011;56128;37.534;-122.308;2023-02-11T15:22:17;6.20;;;2.15;;
69057;SDS011;56128;37.534;-122.308;2023-02-11T15:28:09;4.13;;;2.00;;
69057;SDS011;56128;37.534;-122.308;2023-02-11T15:30:25;3.67;;;1.63;;
69057;SDS011;56128;37.534;-122.308;2023-02-11T15:32:58;1.60;;;1.20;;
69057;SDS011;56128;37.534;-122.308;2023-02-11T15:35:34;2.95;;;0.90;;
69057;SDS011;56128;37.534;-122.308;2023-02-11T15:38:05;1.73;;;0.90;;
69057;SDS011;56128;37.534;-122.308;2023-02-11T15:40:33;3.97;;;0.95;;
69057;SDS011;56128;37.534;-122.308;2023-02-11T15:43:08;2.35;;;1.20;;
69057;SDS011;56128;37.534;-122.308;2023-02-11T15:45:51;5.78;;;1.70;;
69057;SDS011;56128;37.534;-122.308;2023-02-11T15:48:34;1.87;;;0.87;;
69057;SDS011;56128;37.534;-122.308;2023-02-11T15:54:26;1.67;;;0.70;;
69057;SDS011;56128;37.534;-122.308;2023-02-11T15:57:08;2.08;;;0.80;;
69057;SDS011;56128;37.534;-122.308;2023-02-11T15:59:36;2.75;;;0.70;;
69057;SDS011;56128;37.534;-122.308;2023-02-11T16:02:08;4.35;;;1.00;;
69057;SDS011;56128;37.534;-122.308;2023-02-11T16:04:53;6.20;;;1.30;;
69057;SDS011;56128;37.534;-122.308;2023-02-11T16:08:11;6.18;;;2.33;;
69057;SDS011;56128;37.534;-122.308;2023-02-11T16:10:27;8.52;;;3.95;;
69057;SDS011;56128;37.534;-122.308;2023-02-11T16:15:44;7.90;;;4.22;;
69057;SDS011;56128;37.534;-122.308;2023-02-11T16:18:49;3.80;;;1.70;;
69057;SDS011;56128;37.534;-122.308;2023-02-11T16:21:33;3.53;;;0.95;;
69057;SDS011;56128;37.534;-122.308;2023-02-11T16:24:04;6.82;;;1.20;;
69057;SDS011;56128;37.534;-122.308;2023-02-11T16:29:16;3.40;;;1.00;;
69057;SDS011;56128;37.534;-122.308;2023-02-11T16:32:22;3.85;;;1.30;;
69057;SDS011;56128;37.534;-122.308;2023-02-11T16:34:50;5.13;;;1.60;;
69057;SDS011;56128;37.534;-122.308;2023-02-11T16:37:21;4.55;;;1.88;;
69057;SDS011;56128;37.534;-122.308;2023-02-11T16:39:49;4.97;;;1.92;;
69057;SDS011;56128;37.534;-122.308;2023-02-11T16:42:18;4.70;;;2.25;;
69057;SDS011;56128;37.534;-122.308;2023-02-11T16:44:52;9.65;;;2.67;;
69057;SDS011;56128;37.534;-122.308;2023-02-11T16:47:22;3.58;;;1.60;;
69057;SDS011;56128;37.534;-122.308;2023-02-11T16:49:53;5.68;;;1.90;;
69057;SDS011;56128;37.534;-122.308;2023-02-11T16:52:20;3.42;;;1.50;;
69057;SDS011;56128;37.534;-122.308;2023-02-11T16:54:50;4.32;;;1.55;;
69057;SDS011;56128;37.534;-122.308;2023-02-11T16:57:18;4.97;;;1.88;;
69057;SDS011;56128;37.534;-122.308;2023-02-11T16:59:46;3.08;;;1.55;;
69057;SDS011;56128;37.534;-122.308;2023-02-11T17:02:24;4.68;;;1.38;;
69057;SDS011;56128;37.534;-122.308;2023-02-11T17:04:53;6.38;;;1.60;;
69057;SDS011;56128;37.534;-122.308;2023-02-11T17:07:20;4.78;;;1.98;;
69057;SDS011;56128;37.534;-122.308;2023-02-11T17:09:47;6.10;;;1.80;;
69057;SDS011;56128;37.534;-122.308;2023-02-11T17:12:16;4.75;;;1.88;;
69057;SDS011;56128;37.534;-122.308;2023-02-11T17:14:43;4.05;;;1.52;;
69057;SDS011;56128;37.534;-122.308;2023-02-11T17:17:10;5.88;;;1.48;;